sensor_id;sensor_type;location;lat;lon;timestamp;pressure;altitude;pressure_sealevel;temperature;humidity
46946;BME280;32679;40.810;14.498;2023-02-19T00:01:15;101381.19;;;11.24;79.76
46946;BME280;32679;40.810;14.498;2023-02-19T00:03:42;101379.06;;;11.21;79.79
46946;BME280;32679;40.810;14.498;2023-02-19T00:06:09;101366.31;;;11.20;80.51
46946;BME280;32679;40.810;14.498;2023-02-19T00:08:36;101370.25;;;11.19;80.21
46946;BME280;32679;40.810;14.498;2023-02-19T00:11:05;101380.03;;;11.25;80.00
46946;BME280;32679;40.810;14.498;2023-02-19T00:13:34;101377.03;;;11.30;79.79
46946;BME280;32679;40.810;14.498;2023-02-19T00:16:07;101375.75;;;11.27;80.20
46946;BME280;32679;40.810;14.498;2023-02-19T00:18:34;101366.97;;;11.17;80.79
46946;BME280;32679;40.810;14.498;2023-02-19T00:21:02;101369.28;;;11.15;80.80
46946;BME280;32679;40.810;14.498;2023-02-19T00:23:28;101370.91;;;11.16;81.33
46946;BME280;32679;40.810;14.498;2023-02-19T00:25:54;101372.25;;;11.10;80.59
46946;BME280;32679;40.810;14.498;2023-02-19T00:28:22;101367.34;;;11.07;80.81
46946;BME280;32679;40.810;14.498;2023-02-19T00:30:47;101373.28;;;11.05;80.12
46946;BME280;32679;40.810;14.498;2023-02-19T00:33:14;101372.59;;;11.08;80.24
46946;BME280;32679;40.810;14.498;2023-02-19T00:35:39;101365.72;;;11.06;79.49
46946;BME280;32679;40.810;14.498;2023-02-19T00:38:07;101364.56;;;11.07;79.59
46946;BME280;32679;40.810;14.498;2023-02-19T00:40:32;101367.84;;;11.09;79.95
46946;BME280;32679;40.810;14.498;2023-02-19T00:42:58;101368.31;;;11.11;79.80
46946;BME280;32679;40.810;14.498;2023-02-19T00:45:26;101371.09;;;11.11;79.27
46946;BME280;32679;40.810;14.498;2023-02-19T00:47:51;101366.69;;;11.10;79.36
46946;BME280;32679;40.810;14.498;2023-02-19T00:50:17;101370.75;;;11.12;79.31
46946;BME280;32679;40.810;14.498;2023-02-19T00:52:46;101350.78;;;11.10;79.50
46946;BME280;32679;40.810;14.498;2023-02-19T00:55:11;101359.97;;;11.11;79.50
46946;BME280;32679;40.810;14.498;2023-02-19T00:57:36;101366.00;;;11.13;79.70
46946;BME280;32679;40.810;14.498;2023-02-19T01:00:03;101362.34;;;11.21;79.24
46946;BME280;32679;40.810;14.498;2023-02-19T01:02:29;101359.75;;;11.16;78.78
46946;BME280;32679;40.810;14.498;2023-02-19T01:04:54;101359.63;;;11.12;79.13
46946;BME280;32679;40.810;14.498;2023-02-19T01:07:19;101362.22;;;11.17;79.00
46946;BME280;32679;40.810;14.498;2023-02-19T01:09:45;101354.19;;;11.16;78.78
46946;BME280;32679;40.810;14.498;2023-02-19T01:12:10;101358.81;;;11.12;77.48
46946;BME280;32679;40.810;14.498;2023-02-19T01:14:36;101363.97;;;11.22;76.36
46946;BME280;32679;40.810;14.498;2023-02-19T01:17:02;101367.66;;;11.14;76.07
46946;BME280;32679;40.810;14.498;2023-02-19T01:19:28;101359.03;;;11.27;74.33
46946;BME280;32679;40.810;14.498;2023-02-19T01:21:56;101362.34;;;11.21;72.89
46946;BME280;32679;40.810;14.498;2023-02-19T01:24:23;101358.22;;;11.27;71.06
46946;BME280;32679;40.810;14.498;2023-02-19T01:26:51;101360.72;;;11.20;69.42
46946;BME280;32679;40.810;14.498;2023-02-19T01:29:16;101352.16;;;11.25;68.81
46946;BME280;32679;40.810;14.498;2023-02-19T01:31:42;101344.81;;;11.20;69.31
46946;BME280;32679;40.810;14.498;2023-02-19T01:34:09;101335.66;;;11.20;68.99
46946;BME280;32679;40.810;14.498;2023-02-19T01:36:36;101342.66;;;11.26;68.38
46946;BME280;32679;40.810;14.498;2023-02-19T01:39:04;101331.50;;;11.47;67.24
46946;BME280;32679;40.810;14.498;2023-02-19T01:41:32;101327.28;;;11.62;65.01
46946;BME280;32679;40.810;14.498;2023-02-19T01:46:37;101327.78;;;11.76;65.77
46946;BME280;32679;40.810;14.498;2023-02-19T01:49:24;101319.63;;;11.71;67.52
46946;BME280;32679;40.810;14.498;2023-02-19T01:52:06;101322.38;;;11.59;69.85
46946;BME280;32679;40.810;14.498;2023-02-19T01:54:40;101314.22;;;11.53;71.10
46946;BME280;32679;40.810;14.498;2023-02-19T01:57:12;101318.16;;;11.52;72.87
46946;BME280;32679;40.810;14.498;2023-02-19T01:59:40;101309.09;;;11.55;74.61
46946;BME280;32679;40.810;14.498;2023-02-19T02:02:08;101311.66;;;11.48;76.06
46946;BME280;32679;40.810;14.498;2023-02-19T02:04:36;101307.66;;;11.37;76.64
46946;BME280;32679;40.810;14.498;2023-02-19T02:07:03;101302.22;;;11.41;77.51
46946;BME280;32679;40.810;14.498;2023-02-19T02:09:50;101303.78;;;11.50;78.75
46946;BME280;32679;40.810;14.498;2023-02-19T02:12:56;101298.81;;;11.35;79.92
46946;BME280;32679;40.810;14.498;2023-02-19T02:15:27;101298.81;;;11.35;80.83
46946;BME280;32679;40.810;14.498;2023-02-19T02:18:31;101296.16;;;11.39;80.56
46946;BME280;32679;40.810;14.498;2023-02-19T02:32:31;101264.00;;;11.08;84.47
46946;BME280;32679;40.810;14.498;2023-02-19T02:35:06;101293.50;;;11.42;85.73
46946;BME280;32679;40.810;14.498;2023-02-19T02:37:35;101287.88;;;11.30;86.27
46946;BME280;32679;40.810;14.498;2023-02-19T02:40:07;101288.75;;;11.22;87.52
46946;BME280;32679;40.810;14.498;2023-02-19T02:42:34;101285.22;;;11.34;88.68
46946;BME280;32679;40.810;14.498;2023-02-19T02:45:22;101288.31;;;11.20;89.25
46946;BME280;32679;40.810;14.498;2023-02-19T02:51:01;101284.75;;;11.11;90.73
46946;BME280;32679;40.810;14.498;2023-02-19T02:53:37;101280.50;;;11.13;91.46
46946;BME280;32679;40.810;14.498;2023-02-19T02:56:24;101279.44;;;10.97;92.73
46946;BME280;32679;40.810;14.498;2023-02-19T02:58:51;101283.38;;;10.96;93.61
46946;BME280;32679;40.810;14.498;2023-02-19T03:01:24;101270.47;;;10.91;93.28
46946;BME280;32679;40.810;14.498;2023-02-19T03:04:20;101272.75;;;10.98;92.50
46946;BME280;32679;40.810;14.498;2023-02-19T03:06:48;101276.81;;;11.00;92.49
46946;BME280;32679;40.810;14.498;2023-02-19T03:09:19;101269.16;;;10.97;91.84
46946;BME280;32679;40.810;14.498;2023-02-19T03:11:49;101267.09;;;10.86;93.33
46946;BME280;32679;40.810;14.498;2023-02-19T03:14:40;101264.28;;;10.86;94.05
46946;BME280;32679;40.810;14.498;2023-02-19T03:17:42;101260.69;;;11.27;91.87
46946;BME280;32679;40.810;14.498;2023-02-19T03:20:29;101252.69;;;11.05;92.83
46946;BME280;32679;40.810;14.498;2023-02-19T03:22:57;101248.56;;;11.11;93.16
46946;BME280;32679;40.810;14.498;2023-02-19T03:25:27;101251.94;;;10.95;93.59
46946;BME280;32679;40.810;14.498;2023-02-19T03:28:15;101255.22;;;10.77;96.01
46946;BME280;32679;40.810;14.498;2023-02-19T03:30:50;101252.00;;;10.66;96.79
46946;BME280;32679;40.810;14.498;2023-02-19T03:33:26;101250.34;;;10.65;97.43
46946;BME280;32679;40.810;14.498;2023-02-19T03:35:58;101247.66;;;10.56;98.23
46946;BME280;32679;40.810;14.498;2023-02-19T03:46:53;101250.09;;;10.58;99.51
46946;BME280;32679;40.810;14.498;2023-02-19T03:49:33;101260.06;;;10.59;99.07
46946;BME280;32679;40.810;14.498;2023-02-19T03:52:15;101257.56;;;10.66;99.61
46946;BME280;32679;40.810;14.498;2023-02-19T03:57:46;101256.06;;;10.68;98.56
46946;BME280;32679;40.810;14.498;2023-02-19T04:00:17;101255.91;;;10.65;98.18
46946;BME280;32679;40.810;14.498;2023-02-19T04:02:59;101256.53;;;10.70;98.06
46946;BME280;32679;40.810;14.498;2023-02-19T04:05:29;101261.28;;;10.70;97.18
46946;BME280;32679;40.810;14.498;2023-02-19T04:08:17;101255.59;;;10.66;97.58
46946;BME280;32679;40.810;14.498;2023-02-19T04:10:45;101265.59;;;10.67;97.31
46946;BME280;32679;40.810;14.498;2023-02-19T04:13:19;101261.78;;;10.72;97.38
46946;BME280;32679;40.810;14.498;2023-02-19T04:15:48;101260.81;;;10.68;97.27
46946;BME280;32679;40.810;14.498;2023-02-19T04:18:22;101262.34;;;10.65;97.87
46946;BME280;32679;40.810;14.498;2023-02-19T04:20:50;101256.63;;;10.62;97.80
46946;BME280;32679;40.810;14.498;2023-02-19T04:23:22;101267.06;;;10.65;98.31
46946;BME280;32679;40.810;14.498;2023-02-19T04:25:53;101254.50;;;10.59;97.98
46946;BME280;32679;40.810;14.498;2023-02-19T04:28:23;101266.13;;;10.61;97.64
46946;BME280;32679;40.810;14.498;2023-02-19T04:30:49;101261.22;;;10.58;98.30
46946;BME280;32679;40.810;14.498;2023-02-19T04:33:14;101272.34;;;10.58;97.91
46946;BME280;32679;40.810;14.498;2023-02-19T04:35:40;101260.25;;;10.54;98.55
46946;BME280;32679;40.810;14.498;2023-02-19T04:38:10;101253.06;;;10.53;98.91
46946;BME280;32679;40.810;14.498;2023-02-19T04:40:38;101253.88;;;10.53;98.70
46946;BME280;32679;40.810;14.498;2023-02-19T04:43:03;101246.69;;;10.52;99.31
46946;BME280;32679;40.810;14.498;2023-02-19T04:45:31;101242.75;;;10.53;98.87
46946;BME280;32679;40.810;14.498;2023-02-19T04:47:57;101239.16;;;10.53;99.32
46946;BME280;32679;40.810;14.498;2023-02-19T04:50:23;101254.69;;;10.54;99.61
46946;BME280;32679;40.810;14.498;2023-02-19T04:52:49;101249.28;;;10.57;99.13
46946;BME280;32679;40.810;14.498;2023-02-19T04:55:14;101258.84;;;10.68;98.39
46946;BME280;32679;40.810;14.498;2023-02-19T04:57:40;101253.75;;;10.70;98.26
46946;BME280;32679;40.810;14.498;2023-02-19T05:00:08;101257.56;;;10.66;98.32
46946;BME280;32679;40.810;14.498;2023-02-19T05:02:34;101258.50;;;10.70;99.00
46946;BME280;32679;40.810;14.498;2023-02-19T05:04:59;101252.22;;;10.61;98.87
46946;BME280;32679;40.810;14.498;2023-02-19T05:07:27;101253.34;;;10.60;99.55
46946;BME280;32679;40.810;14.498;2023-02-19T05:09:53;101262.84;;;10.59;99.24
46946;BME280;32679;40.810;14.498;2023-02-19T05:12:18;101252.41;;;10.56;100.00
46946;BME280;32679;40.810;14.498;2023-02-19T05:14:46;101262.38;;;10.57;100.00
46946;BME280;32679;40.810;14.498;2023-02-19T05:17:11;101255.66;;;10.58;99.93
46946;BME280;32679;40.810;14.498;2023-02-19T05:19:37;101256.34;;;10.55;100.00
46946;BME280;32679;40.810;14.498;2023-02-19T05:22:02;101252.41;;;10.56;100.00
46946;BME280;32679;40.810;14.498;2023-02-19T05:24:28;101248.19;;;10.49;99.95
46946;BME280;32679;40.810;14.498;2023-02-19T05:26:56;101242.63;;;10.49;100.00
46946;BME280;32679;40.810;14.498;2023-02-19T05:29:22;101251.44;;;10.52;100.00
46946;BME280;32679;40.810;14.498;2023-02-19T05:31:49;101250.47;;;10.47;100.00
46946;BME280;32679;40.810;14.498;2023-02-19T05:34:15;101243.28;;;10.46;100.00
46946;BME280;32679;40.810;14.498;2023-02-19T05:36:40;101244.63;;;10.40;100.00
46946;BME280;32679;40.810;14.498;2023-02-19T05:39:06;101243.00;;;10.39;100.00
46946;BME280;32679;40.810;14.498;2023-02-19T05:41:33;101239.66;;;10.55;100.00
46946;BME280;32679;40.810;14.498;2023-02-19T05:43:59;101240.09;;;10.57;100.00
46946;BME280;32679;40.810;14.498;2023-02-19T05:46:28;101244.88;;;10.56;100.00
46946;BME280;32679;40.810;14.498;2023-02-19T05:48:54;101246.84;;;10.56;100.00
46946;BME280;32679;40.810;14.498;2023-02-19T05:51:23;101246.22;;;10.50;100.00
46946;BME280;32679;40.810;14.498;2023-02-19T05:53:49;101258.47;;;10.49;100.00
46946;BME280;32679;40.810;14.498;2023-02-19T05:58:46;101250.47;;;10.47;100.00
46946;BME280;32679;40.810;14.498;2023-02-19T06:01:16;101256.03;;;10.47;100.00
46946;BME280;32679;40.810;14.498;2023-02-19T06:03:42;101252.44;;;10.47;100.00
46946;BME280;32679;40.810;14.498;2023-02-19T06:06:09;101256.72;;;10.44;100.00
46946;BME280;32679;40.810;14.498;2023-02-19T06:08:36;101247.22;;;10.45;100.00
46946;BME280;32679;40.810;14.498;2023-02-19T06:11:02;101252.78;;;10.45;100.00
46946;BME280;32679;40.810;14.498;2023-02-19T06:13:28;101254.56;;;10.50;100.00
46946;BME280;32679;40.810;14.498;2023-02-19T06:15:56;101253.25;;;10.47;100.00
46946;BME280;32679;40.810;14.498;2023-02-19T06:18:21;101225.69;;;10.34;100.00
46946;BME280;32679;40.810;14.498;2023-02-19T06:20:47;101250.13;;;10.49;100.00
46946;BME280;32679;40.810;14.498;2023-02-19T06:23:12;101262.56;;;10.52;100.00
46946;BME280;32679;40.810;14.498;2023-02-19T06:25:40;101260.13;;;10.50;100.00
46946;BME280;32679;40.810;14.498;2023-02-19T06:28:06;101265.00;;;10.53;100.00
46946;BME280;32679;40.810;14.498;2023-02-19T06:30:34;101264.69;;;10.55;100.00
46946;BME280;32679;40.810;14.498;2023-02-19T06:32:59;101268.13;;;10.52;100.00
46946;BME280;32679;40.810;14.498;2023-02-19T06:35:25;101264.88;;;10.49;100.00
46946;BME280;32679;40.810;14.498;2023-02-19T06:37:50;101259.78;;;10.52;100.00
46946;BME280;32679;40.810;14.498;2023-02-19T06:40:16;101260.13;;;10.50;100.00
46946;BME280;32679;40.810;14.498;2023-02-19T06:42:41;101270.91;;;10.52;100.00
46946;BME280;32679;40.810;14.498;2023-02-19T06:45:07;101260.78;;;10.47;100.00
46946;BME280;32679;40.810;14.498;2023-02-19T06:47:35;101266.50;;;10.51;100.00
46946;BME280;32679;40.810;14.498;2023-02-19T06:50:00;101268.94;;;10.52;100.00
46946;BME280;32679;40.810;14.498;2023-02-19T06:52:26;101273.69;;;10.52;100.00
46946;BME280;32679;40.810;14.498;2023-02-19T06:54:52;101266.16;;;10.82;100.00
46946;BME280;32679;40.810;14.498;2023-02-19T06:57:18;101269.66;;;10.70;100.00
46946;BME280;32679;40.810;14.498;2023-02-19T06:59:44;101278.19;;;10.65;100.00
46946;BME280;32679;40.810;14.498;2023-02-19T07:02:11;101267.47;;;10.55;100.00
46946;BME280;32679;40.810;14.498;2023-02-19T07:04:37;101276.38;;;10.69;100.00
46946;BME280;32679;40.810;14.498;2023-02-19T07:07:05;101270.47;;;10.70;100.00
46946;BME280;32679;40.810;14.498;2023-02-19T07:09:30;101271.81;;;10.64;100.00
46946;BME280;32679;40.810;14.498;2023-02-19T07:11:59;101271.53;;;10.57;100.00
46946;BME280;32679;40.810;14.498;2023-02-19T07:14:24;101262.09;;;10.49;100.00
46946;BME280;32679;40.810;14.498;2023-02-19T07:16:52;101269.59;;;10.49;100.00
46946;BME280;32679;40.810;14.498;2023-02-19T07:19:18;101273.03;;;10.55;100.00
46946;BME280;32679;40.810;14.498;2023-02-19T07:21:43;101272.34;;;10.58;100.00
46946;BME280;32679;40.810;14.498;2023-02-19T07:24:09;101276.56;;;10.64;100.00
46946;BME280;32679;40.810;14.498;2023-02-19T07:26:35;101276.38;;;10.69;100.00
46946;BME280;32679;40.810;14.498;2023-02-19T07:29:01;101272.13;;;10.71;100.00
46946;BME280;32679;40.810;14.498;2023-02-19T07:31:27;101265.03;;;10.74;100.00
46946;BME280;32679;40.810;14.498;2023-02-19T07:33:53;101271.22;;;10.80;100.00
46946;BME280;32679;40.810;14.498;2023-02-19T07:36:21;101267.91;;;10.86;100.00
46946;BME280;32679;40.810;14.498;2023-02-19T07:38:50;101268.31;;;10.97;100.00
46946;BME280;32679;40.810;14.498;2023-02-19T07:41:16;101254.31;;;10.85;100.00
46946;BME280;32679;40.810;14.498;2023-02-19T07:43:44;101261.19;;;10.87;100.00
46946;BME280;32679;40.810;14.498;2023-02-19T07:46:11;101257.59;;;10.87;100.00
46946;BME280;32679;40.810;14.498;2023-02-19T07:48:41;101252.91;;;10.79;100.00
46946;BME280;32679;40.810;14.498;2023-02-19T07:51:10;101254.88;;;10.78;100.00
46946;BME280;32679;40.810;14.498;2023-02-19T07:53:36;101258.63;;;10.82;100.00
46946;BME280;32679;40.810;14.498;2023-02-19T07:56:04;101257.50;;;10.95;100.00
46946;BME280;32679;40.810;14.498;2023-02-19T07:58:30;101246.78;;;10.85;100.00
46946;BME280;32679;40.810;14.498;2023-02-19T08:03:40;101256.56;;;10.91;100.00
46946;BME280;32679;40.810;14.498;2023-02-19T08:06:06;101251.47;;;10.93;100.00
46946;BME280;32679;40.810;14.498;2023-02-19T08:08:32;101222.63;;;10.77;100.00
46946;BME280;32679;40.810;14.498;2023-02-19T08:11:04;101245.41;;;10.91;100.00
46946;BME280;32679;40.810;14.498;2023-02-19T08:13:49;101247.94;;;10.84;100.00
46946;BME280;32679;40.810;14.498;2023-02-19T08:16:16;101244.69;;;10.82;100.00
46946;BME280;32679;40.810;14.498;2023-02-19T08:18:47;101252.28;;;10.94;100.00
46946;BME280;32679;40.810;14.498;2023-02-19T08:21:15;101245.50;;;10.83;100.00
46946;BME280;32679;40.810;14.498;2023-02-19T08:23:44;101246.78;;;10.85;100.00
46946;BME280;32679;40.810;14.498;2023-02-19T08:26:14;101251.75;;;11.00;100.00
46946;BME280;32679;40.810;14.498;2023-02-19T08:28:40;101238.56;;;10.89;100.00
46946;BME280;32679;40.810;14.498;2023-02-19T08:31:07;101251.00;;;10.91;100.00
46946;BME280;32679;40.810;14.498;2023-02-19T08:33:33;101248.34;;;10.95;100.00
46946;BME280;32679;40.810;14.498;2023-02-19T08:36:06;101255.22;;;10.97;100.00
46946;BME280;32679;40.810;14.498;2023-02-19T08:38:36;101248.97;;;11.00;100.00
46946;BME280;32679;40.810;14.498;2023-02-19T08:41:10;101246.19;;;11.00;100.00
46946;BME280;32679;40.810;14.498;2023-02-19T08:43:39;101245.72;;;10.98;100.00
46946;BME280;32679;40.810;14.498;2023-02-19T08:46:08;101242.53;;;11.09;100.00
46946;BME280;32679;40.810;14.498;2023-02-19T08:48:35;101235.78;;;11.10;100.00
46946;BME280;32679;40.810;14.498;2023-02-19T08:51:03;101242.94;;;10.98;100.00
46946;BME280;32679;40.810;14.498;2023-02-19T08:53:30;101248.09;;;11.09;100.00
46946;BME280;32679;40.810;14.498;2023-02-19T08:55:56;101235.09;;;11.13;100.00
46946;BME280;32679;40.810;14.498;2023-02-19T08:58:22;101241.56;;;11.05;100.00
46946;BME280;32679;40.810;14.498;2023-02-19T09:00:50;101242.38;;;11.05;100.00
46946;BME280;32679;40.810;14.498;2023-02-19T09:03:16;101241.56;;;11.05;100.00
46946;BME280;32679;40.810;14.498;2023-02-19T09:05:41;101235.03;;;11.00;100.00
46946;BME280;32679;40.810;14.498;2023-02-19T09:08:07;101234.22;;;11.00;100.00
46946;BME280;32679;40.810;14.498;2023-02-19T09:10:36;101229.72;;;11.08;100.00
46946;BME280;32679;40.810;14.498;2023-02-19T09:13:02;101238.44;;;11.06;100.00
46946;BME280;32679;40.810;14.498;2023-02-19T09:15:30;101240.00;;;11.16;100.00
46946;BME280;32679;40.810;14.498;2023-02-19T09:17:58;101239.78;;;11.21;100.00
46946;BME280;32679;40.810;14.498;2023-02-19T09:20:26;101245.34;;;11.21;100.00
46946;BME280;32679;40.810;14.498;2023-02-19T09:22:56;101240.19;;;11.11;100.00
46946;BME280;32679;40.810;14.498;2023-02-19T09:25:21;101247.13;;;11.25;100.00
46946;BME280;32679;40.810;14.498;2023-02-19T09:27:47;101244.94;;;11.31;100.00
46946;BME280;32679;40.810;14.498;2023-02-19T09:30:14;101242.34;;;11.26;100.00
46946;BME280;32679;40.810;14.498;2023-02-19T09:32:40;101235.41;;;11.32;100.00
46946;BME280;32679;40.810;14.498;2023-02-19T09:35:13;101234.78;;;11.47;100.00
46946;BME280;32679;40.810;14.498;2023-02-19T09:37:38;101242.56;;;11.54;100.00
46946;BME280;32679;40.810;14.498;2023-02-19T09:40:06;101236.63;;;11.43;100.00
46946;BME280;32679;40.810;14.498;2023-02-19T09:42:33;101238.50;;;11.51;100.00
46946;BME280;32679;40.810;14.498;2023-02-19T09:44:59;101235.50;;;11.57;100.00
46946;BME280;32679;40.810;14.498;2023-02-19T09:47:27;101245.28;;;11.63;100.00
46946;BME280;32679;40.810;14.498;2023-02-19T09:50:22;101228.13;;;11.73;100.00
46946;BME280;32679;40.810;14.498;2023-02-19T09:52:57;101227.19;;;11.81;100.00
46946;BME280;32679;40.810;14.498;2023-02-19T09:55:34;101233.56;;;11.69;100.00
46946;BME280;32679;40.810;14.498;2023-02-19T09:58:05;101230.84;;;11.94;100.00
46946;BME280;32679;40.810;14.498;2023-02-19T10:00:38;101235.19;;;11.70;100.00
46946;BME280;32679;40.810;14.498;2023-02-19T10:03:08;101229.31;;;11.84;100.00
46946;BME280;32679;40.810;14.498;2023-02-19T10:05:35;101227.81;;;11.87;100.00
46946;BME280;32679;40.810;14.498;2023-02-19T10:08:06;101227.88;;;11.78;100.00
46946;BME280;32679;40.810;14.498;2023-02-19T10:10:34;101229.16;;;11.80;100.00
46946;BME280;32679;40.810;14.498;2023-02-19T10:13:21;101219.34;;;11.95;100.00
46946;BME280;32679;40.810;14.498;2023-02-19T10:15:55;101225.59;;;11.92;100.00
46946;BME280;32679;40.810;14.498;2023-02-19T10:18:23;101226.41;;;11.93;100.00
46946;BME280;32679;40.810;14.498;2023-02-19T10:20:50;101224.69;;;11.88;100.00
46946;BME280;32679;40.810;14.498;2023-02-19T10:23:16;101227.94;;;12.02;100.00
46946;BME280;32679;40.810;14.498;2023-02-19T10:25:46;101221.44;;;12.11;100.00
46946;BME280;32679;40.810;14.498;2023-02-19T10:28:16;101216.81;;;12.15;100.00
46946;BME280;32679;40.810;14.498;2023-02-19T10:30:42;101230.97;;;12.34;100.00
46946;BME280;32679;40.810;14.498;2023-02-19T10:33:13;101223.66;;;12.29;100.00
46946;BME280;32679;40.810;14.498;2023-02-19T10:38:36;101224.00;;;12.16;100.00
46946;BME280;32679;40.810;14.498;2023-02-19T10:41:13;101186.81;;;11.99;100.00
46946;BME280;32679;40.810;14.498;2023-02-19T10:43:49;101201.47;;;12.21;100.00
46946;BME280;32679;40.810;14.498;2023-02-19T10:46:36;101214.22;;;12.34;100.00
46946;BME280;32679;40.810;14.498;2023-02-19T10:49:24;101210.63;;;12.33;100.00
46946;BME280;32679;40.810;14.498;2023-02-19T10:51:57;101204.69;;;12.47;100.00
46946;BME280;32679;40.810;14.498;2023-02-19T10:54:31;101202.13;;;12.30;100.00
46946;BME280;32679;40.810;14.498;2023-02-19T10:59:51;101202.84;;;12.39;100.00
46946;BME280;32679;40.810;14.498;2023-02-19T11:02:19;101193.72;;;12.67;100.00
46946;BME280;32679;40.810;14.498;2023-02-19T11:07:35;101192.16;;;12.81;100.00
46946;BME280;32679;40.810;14.498;2023-02-19T11:10:02;101190.91;;;12.79;100.00
46946;BME280;32679;40.810;14.498;2023-02-19T11:12:32;101181.97;;;12.73;100.00
46946;BME280;32679;40.810;14.498;2023-02-19T11:15:21;101184.22;;;12.83;100.00
46946;BME280;32679;40.810;14.498;2023-02-19T11:18:21;101187.03;;;12.83;100.00
46946;BME280;32679;40.810;14.498;2023-02-19T11:20:56;101179.25;;;12.77;100.00
46946;BME280;32679;40.810;14.498;2023-02-19T11:23:35;101177.16;;;12.86;100.00
46946;BME280;32679;40.810;14.498;2023-02-19T11:26:17;101175.72;;;12.92;100.00
46946;BME280;32679;40.810;14.498;2023-02-19T11:28:43;101169.94;;;12.85;98.96
46946;BME280;32679;40.810;14.498;2023-02-19T11:31:27;101175.03;;;12.83;99.80
46946;BME280;32679;40.810;14.498;2023-02-19T11:34:02;101169.69;;;12.90;99.33
46946;BME280;32679;40.810;14.498;2023-02-19T11:36:36;101169.06;;;12.97;97.19
46946;BME280;32679;40.810;14.498;2023-02-19T12:01:46;101133.31;;;13.02;96.15
46946;BME280;32679;40.810;14.498;2023-02-19T12:04:33;101121.88;;;13.07;95.23
46946;BME280;32679;40.810;14.498;2023-02-19T12:15:05;101123.97;;;13.10;94.81
46946;BME280;32679;40.810;14.498;2023-02-19T12:20:41;101125.59;;;13.11;96.52
46946;BME280;32679;40.810;14.498;2023-02-19T12:39:33;101073.13;;;13.05;93.64
46946;BME280;32679;40.810;14.498;2023-02-19T12:44:40;101072.41;;;13.08;93.70
46946;BME280;32679;40.810;14.498;2023-02-19T12:47:15;101101.00;;;13.17;93.60
46946;BME280;32679;40.810;14.498;2023-02-19T12:49:49;101087.69;;;13.26;93.45
46946;BME280;32679;40.810;14.498;2023-02-19T12:52:25;101088.41;;;13.23;92.21
46946;BME280;32679;40.810;14.498;2023-02-19T12:54:53;101079.44;;;13.18;92.82
46946;BME280;32679;40.810;14.498;2023-02-19T12:57:26;101067.31;;;13.26;92.89
46946;BME280;32679;40.810;14.498;2023-02-19T13:00:19;101078.94;;;13.28;92.23
46946;BME280;32679;40.810;14.498;2023-02-19T13:03:13;101065.34;;;13.26;91.65
46946;BME280;32679;40.810;14.498;2023-02-19T13:06:25;101061.44;;;13.47;91.47
46946;BME280;32679;40.810;14.498;2023-02-19T13:08:55;101054.34;;;13.33;92.52
46946;BME280;32679;40.810;14.498;2023-02-19T13:11:28;101055.41;;;13.45;92.12
46946;BME280;32679;40.810;14.498;2023-02-19T13:14:10;101045.94;;;13.49;91.72
46946;BME280;32679;40.810;14.498;2023-02-19T13:16:42;101047.41;;;13.43;90.79
46946;BME280;32679;40.810;14.498;2023-02-19T13:19:18;101052.25;;;13.46;90.66
46946;BME280;32679;40.810;14.498;2023-02-19T13:22:18;101055.59;;;13.52;89.18
46946;BME280;32679;40.810;14.498;2023-02-19T13:25:08;101041.81;;;13.43;88.14
46946;BME280;32679;40.810;14.498;2023-02-19T13:28:01;101045.84;;;13.46;89.45
46946;BME280;32679;40.810;14.498;2023-02-19T13:36:35;101030.09;;;13.53;88.83
46946;BME280;32679;40.810;14.498;2023-02-19T13:39:04;101019.50;;;13.47;88.80
46946;BME280;32679;40.810;14.498;2023-02-19T13:41:55;101004.84;;;13.34;87.11
46946;BME280;32679;40.810;14.498;2023-02-19T13:44:36;101020.41;;;13.51;85.71
46946;BME280;32679;40.810;14.498;2023-02-19T13:50:23;100996.97;;;13.55;85.63
46946;BME280;32679;40.810;14.498;2023-02-19T13:53:00;101005.78;;;13.57;85.39
46946;BME280;32679;40.810;14.498;2023-02-19T13:55:48;101006.31;;;13.63;86.91
46946;BME280;32679;40.810;14.498;2023-02-19T14:10:12;100988.22;;;13.57;90.13
46946;BME280;32679;40.810;14.498;2023-02-19T14:12:46;100986.22;;;13.57;90.58
46946;BME280;32679;40.810;14.498;2023-02-19T14:15:41;100982.28;;;13.58;90.34
46946;BME280;32679;40.810;14.498;2023-02-19T14:21:13;100989.22;;;13.49;91.96
46946;BME280;32679;40.810;14.498;2023-02-19T14:23:40;100978.88;;;13.33;92.82
46946;BME280;32679;40.810;14.498;2023-02-19T14:26:08;100969.22;;;13.31;93.78
46946;BME280;32679;40.810;14.498;2023-02-19T14:28:40;100985.09;;;13.27;94.16
46946;BME280;32679;40.810;14.498;2023-02-19T14:31:14;100985.09;;;13.27;93.53
46946;BME280;32679;40.810;14.498;2023-02-19T14:34:17;100978.97;;;13.21;91.64
46946;BME280;32679;40.810;14.498;2023-02-19T14:36:52;100977.00;;;13.22;91.44
46946;BME280;32679;40.810;14.498;2023-02-19T14:39:34;100981.22;;;13.16;93.13
46946;BME280;32679;40.810;14.498;2023-02-19T14:42:06;100975.91;;;13.10;91.96
46946;BME280;32679;40.810;14.498;2023-02-19T14:44:51;100984.72;;;13.13;92.87
46946;BME280;32679;40.810;14.498;2023-02-19T14:47:24;100987.34;;;13.05;92.62
46946;BME280;32679;40.810;14.498;2023-02-19T14:52:43;100986.16;;;13.06;91.74
46946;BME280;32679;40.810;14.498;2023-02-19T14:55:22;100965.16;;;12.97;92.60
46946;BME280;32679;40.810;14.498;2023-02-19T14:57:52;100982.34;;;12.99;93.30